AFR228 VABB-LHBP
Flight info
| Callsign | AFR228 |
|---|---|
| Flight time | N/A |
| Altitude | 34000 |
| Route | ANOLI2A EXOLU DCT TAXUN DCT TARAB DCT SAPNA/N0487F350 DCT MINAR/N0488F360 DCT NIROL DCT KC DCT PG DCT KEBUD DCT OBSEL DCT ZDN DCT DAPAP DCT TOVUS DCT BOPAG DCT DAR DCT NIVRA DCT SOGOT DCT NODLA DCT ROVAD DCT IKA/N0474F380 DCT VEBER DCT GOLNU DCT PAROT DCT ASPOK DCT MURPU DCT BUDED DCT SIBVU DCT REXUS DCT AGINA DCT ARI DCT YAVUZ DCT MILQO DCT TBN DCT ERIDU DCT TOLUN DCT OLUPO DCT KARDE DCT KUGOS/K0874F380 DCT SUGUL DCT LAGIR DCT ROMOK DCT BANUR DCT ADINA/N0464F380 DCT PITIS DCT MOBRA DCT TUVNU DCT KEZAL KEZA2T11 |
| Aircraft | A332/H-SDE3GHIJ2J3J5M1RVWXY/LB2D1 |
Departure
| Time | 2026-05-04 12:38 |
|---|---|
| Airport | Chhatrapati Shivaji Maharaj International Airport (VABB) |
Arrival
| Time | N/A |
|---|---|
| Airport | Budapest Liszt Ferenc International Airport (LHBP) |
| Time | Latitude | Longitude | Altitude | Speed | Heading |
|---|---|---|---|---|---|
| 2026-05-04 12:09 | 19.09155 | 72.85486 | 32 ft | 0 kts | 358° |
| 2026-05-04 12:23 | 19.09150 | 72.85486 | 32 ft | 3 kts | 358° |
| 2026-05-04 12:24 | 19.09131 | 72.85491 | 30 ft | 3 kts | 352° |
| 2026-05-04 12:24 | 19.09114 | 72.85490 | 28 ft | 3 kts | 36° |
| 2026-05-04 12:24 | 19.09102 | 72.85475 | 28 ft | 1 kts | 78° |
| 2026-05-04 12:27 | 19.09101 | 72.85482 | 29 ft | 1 kts | 96° |
| 2026-05-04 12:27 | 19.09100 | 72.85491 | 29 ft | 2 kts | 97° |
| 2026-05-04 12:27 | 19.09098 | 72.85505 | 29 ft | 2 kts | 98° |
| 2026-05-04 12:28 | 19.09095 | 72.85524 | 31 ft | 3 kts | 98° |
| 2026-05-04 12:28 | 19.09094 | 72.85550 | 31 ft | 4 kts | 93° |
| 2026-05-04 12:28 | 19.09081 | 72.85581 | 30 ft | 5 kts | 127° |
| 2026-05-04 12:28 | 19.09050 | 72.85607 | 31 ft | 6 kts | 137° |
| 2026-05-04 12:29 | 19.09033 | 72.85644 | 31 ft | 5 kts | 105° |
| 2026-05-04 12:29 | 19.09029 | 72.85681 | 31 ft | 5 kts | 94° |
| 2026-05-04 12:29 | 19.09028 | 72.85716 | 31 ft | 4 kts | 89° |
| 2026-05-04 12:29 | 19.09028 | 72.85748 | 31 ft | 5 kts | 89° |
| 2026-05-04 12:30 | 19.09029 | 72.85790 | 31 ft | 7 kts | 89° |
| 2026-05-04 12:30 | 19.09030 | 72.85845 | 32 ft | 8 kts | 89° |
| 2026-05-04 12:30 | 19.09031 | 72.85908 | 32 ft | 9 kts | 89° |
| 2026-05-04 12:30 | 19.09031 | 72.85930 | 32 ft | 0 kts | 89° |
| 2026-05-04 12:31 | 19.09031 | 72.85939 | 32 ft | 2 kts | 89° |
| 2026-05-04 12:31 | 19.09032 | 72.85971 | 32 ft | 7 kts | 89° |
| 2026-05-04 12:31 | 19.09033 | 72.86046 | 33 ft | 13 kts | 89° |
| 2026-05-04 12:31 | 19.09035 | 72.86161 | 34 ft | 18 kts | 89° |
| 2026-05-04 12:32 | 19.09037 | 72.86286 | 35 ft | 16 kts | 89° |
| 2026-05-04 12:32 | 19.09039 | 72.86511 | 36 ft | 15 kts | 89° |
| 2026-05-04 12:32 | 19.09040 | 72.86624 | 36 ft | 15 kts | 89° |
| 2026-05-04 12:33 | 19.09043 | 72.86737 | 37 ft | 16 kts | 88° |
| 2026-05-04 12:33 | 19.09045 | 72.86848 | 37 ft | 14 kts | 89° |
| 2026-05-04 12:33 | 19.09046 | 72.86953 | 37 ft | 14 kts | 89° |
| 2026-05-04 12:33 | 19.09047 | 72.87057 | 37 ft | 14 kts | 90° |
| 2026-05-04 12:34 | 19.09048 | 72.87158 | 38 ft | 14 kts | 88° |
| 2026-05-04 12:34 | 19.09050 | 72.87258 | 38 ft | 13 kts | 89° |
| 2026-05-04 12:34 | 19.09052 | 72.87357 | 39 ft | 13 kts | 88° |
| 2026-05-04 12:34 | 19.09053 | 72.87453 | 39 ft | 13 kts | 90° |
| 2026-05-04 12:35 | 19.09053 | 72.87551 | 39 ft | 13 kts | 89° |
| 2026-05-04 12:35 | 19.09054 | 72.87647 | 40 ft | 13 kts | 89° |
| 2026-05-04 12:35 | 19.09055 | 72.87742 | 40 ft | 13 kts | 89° |
| 2026-05-04 12:35 | 19.09057 | 72.87838 | 41 ft | 13 kts | 89° |
| 2026-05-04 12:36 | 19.09058 | 72.87934 | 42 ft | 13 kts | 88° |
| 2026-05-04 12:36 | 19.09051 | 72.88025 | 42 ft | 11 kts | 111° |
| 2026-05-04 12:36 | 19.08999 | 72.88051 | 42 ft | 8 kts | 175° |
| 2026-05-04 12:36 | 19.08947 | 72.88033 | 41 ft | 9 kts | 213° |
| 2026-05-04 12:37 | 19.08900 | 72.87974 | 41 ft | 12 kts | 240° |
| 2026-05-04 12:37 | 19.08885 | 72.87844 | 41 ft | 36 kts | 266° |
| 2026-05-04 12:37 | 19.08877 | 72.87372 | 40 ft | 91 kts | 269° |
| 2026-05-04 12:37 | 19.08866 | 72.86531 | 34 ft | 137 kts | 269° |
| 2026-05-04 12:38 | 19.08890 | 72.85433 | 363 ft | 148 kts | 267° |
| 2026-05-04 12:38 | 19.08947 | 72.84308 | 751 ft | 165 kts | 279° |
| 2026-05-04 12:38 | 19.09299 | 72.83083 | 1064 ft | 182 kts | 285° |
| 2026-05-04 12:38 | 19.09346 | 72.81734 | 1372 ft | 189 kts | 261° |
| 2026-05-04 12:39 | 19.09161 | 72.80288 | 1563 ft | 208 kts | 260° |
| 2026-05-04 12:39 | 19.08996 | 72.78712 | 1796 ft | 223 kts | 263° |
| 2026-05-04 12:39 | 19.08864 | 72.77028 | 2120 ft | 237 kts | 265° |
| 2026-05-04 12:39 | 19.08774 | 72.75244 | 2449 ft | 249 kts | 268° |
| 2026-05-04 12:40 | 19.08759 | 72.73376 | 2834 ft | 258 kts | 274° |
| 2026-05-04 12:40 | 19.09339 | 72.71607 | 3441 ft | 259 kts | 308° |
| 2026-05-04 12:40 | 19.10803 | 72.70536 | 4115 ft | 258 kts | 336° |
| 2026-05-04 12:40 | 19.12420 | 72.69755 | 4739 ft | 254 kts | 325° |
| 2026-05-04 12:41 | 19.13730 | 72.68527 | 5299 ft | 251 kts | 310° |
| 2026-05-04 12:41 | 19.14880 | 72.67135 | 5841 ft | 253 kts | 309° |
| 2026-05-04 12:41 | 19.16076 | 72.65699 | 6102 ft | 268 kts | 310° |
| 2026-05-04 12:41 | 19.17362 | 72.64229 | 6551 ft | 270 kts | 314° |
| 2026-05-04 12:42 | 19.18704 | 72.62894 | 7356 ft | 262 kts | 316° |
| 2026-05-04 12:42 | 19.20041 | 72.61595 | 8003 ft | 260 kts | 316° |
| 2026-05-04 12:42 | 19.21095 | 72.60076 | 8625 ft | 258 kts | 289° |
| 2026-05-04 12:42 | 19.21448 | 72.58236 | 9281 ft | 254 kts | 280° |
| 2026-05-04 12:43 | 19.21815 | 72.56421 | 9893 ft | 252 kts | 285° |
| 2026-05-04 12:43 | 19.22264 | 72.54616 | 10339 ft | 256 kts | 284° |
| 2026-05-04 12:43 | 19.22715 | 72.52782 | 10780 ft | 260 kts | 285° |
| 2026-05-04 12:43 | 19.23198 | 72.50922 | 11207 ft | 266 kts | 285° |
| 2026-05-04 12:44 | 19.23709 | 72.49000 | 11526 ft | 276 kts | 285° |
| 2026-05-04 12:44 | 19.24232 | 72.47007 | 11889 ft | 285 kts | 285° |
| 2026-05-04 12:44 | 19.24765 | 72.44951 | 12277 ft | 294 kts | 284° |
| 2026-05-04 12:44 | 19.25310 | 72.42841 | 12689 ft | 301 kts | 287° |
| 2026-05-04 12:45 | 19.26347 | 72.40900 | 13081 ft | 311 kts | 313° |
| 2026-05-04 12:45 | 19.28089 | 72.39507 | 13523 ft | 319 kts | 326° |
| 2026-05-04 12:45 | 19.30060 | 72.38257 | 13480 ft | 341 kts | 327° |
| 2026-05-04 12:45 | 19.32133 | 72.36913 | 13550 ft | 356 kts | 322° |
| 2026-05-04 12:46 | 19.34045 | 72.35186 | 13681 ft | 368 kts | 312° |
| 2026-05-04 12:46 | 19.35665 | 72.33043 | 13805 ft | 378 kts | 307° |
| 2026-05-04 12:46 | 19.37608 | 72.31121 | 14014 ft | 388 kts | 322° |
| 2026-05-04 12:46 | 19.39775 | 72.29406 | 14446 ft | 387 kts | 321° |
| 2026-05-04 12:47 | 19.41892 | 72.27677 | 15085 ft | 382 kts | 320° |
| 2026-05-04 12:47 | 19.43953 | 72.25931 | 15720 ft | 377 kts | 319° |
| 2026-05-04 12:47 | 19.45959 | 72.24163 | 16340 ft | 373 kts | 318° |
| 2026-05-04 12:47 | 19.47925 | 72.22382 | 16902 ft | 371 kts | 319° |
| 2026-05-04 12:48 | 19.49928 | 72.20653 | 17400 ft | 372 kts | 320° |
| 2026-05-04 12:48 | 19.51882 | 72.18871 | 17897 ft | 371 kts | 314° |
| 2026-05-04 12:48 | 19.53656 | 72.16882 | 18303 ft | 372 kts | 311° |
| 2026-05-04 12:48 | 19.55357 | 72.14858 | 18697 ft | 373 kts | 310° |
| 2026-05-04 12:49 | 19.57063 | 72.12783 | 19078 ft | 374 kts | 310° |
| 2026-05-04 12:49 | 19.58753 | 72.10685 | 19465 ft | 374 kts | 309° |
| 2026-05-04 12:49 | 19.60427 | 72.08564 | 19862 ft | 375 kts | 309° |
| 2026-05-04 12:49 | 19.62102 | 72.06442 | 20277 ft | 375 kts | 310° |
| 2026-05-04 12:50 | 19.63859 | 72.04400 | 20670 ft | 374 kts | 313° |
| 2026-05-04 12:50 | 19.65706 | 72.02431 | 20849 ft | 379 kts | 314° |
| 2026-05-04 12:50 | 19.67598 | 72.00454 | 21004 ft | 385 kts | 314° |
| 2026-05-04 12:50 | 19.69500 | 71.98426 | 21122 ft | 390 kts | 313° |
| 2026-05-04 12:51 | 19.71396 | 71.96341 | 21260 ft | 395 kts | 313° |
| 2026-05-04 12:51 | 19.73290 | 71.94200 | 21385 ft | 400 kts | 312° |
| 2026-05-04 12:51 | 19.75188 | 71.92014 | 21512 ft | 405 kts | 311° |
| 2026-05-04 12:51 | 19.77097 | 71.89792 | 21621 ft | 409 kts | 311° |
| 2026-05-04 12:52 | 19.79021 | 71.87543 | 21725 ft | 414 kts | 311° |
| 2026-05-04 12:52 | 19.80964 | 71.85271 | 21839 ft | 418 kts | 311° |
| 2026-05-04 12:52 | 19.82927 | 71.82976 | 21946 ft | 422 kts | 311° |
| 2026-05-04 12:52 | 19.84908 | 71.80661 | 22050 ft | 425 kts | 311° |
| 2026-05-04 12:53 | 19.86906 | 71.78328 | 22150 ft | 429 kts | 311° |
| 2026-05-04 12:53 | 19.88923 | 71.75974 | 22252 ft | 432 kts | 311° |
| 2026-05-04 12:53 | 19.90951 | 71.73607 | 22401 ft | 434 kts | 311° |
| 2026-05-04 12:53 | 19.92984 | 71.71233 | 22579 ft | 435 kts | 311° |
| 2026-05-04 12:54 | 19.95024 | 71.68851 | 22773 ft | 436 kts | 311° |
| 2026-05-04 12:54 | 19.97067 | 71.66463 | 22948 ft | 437 kts | 311° |
| 2026-05-04 12:54 | 19.99114 | 71.64070 | 23144 ft | 438 kts | 311° |
| 2026-05-04 12:54 | 20.01166 | 71.61670 | 23321 ft | 439 kts | 311° |
| 2026-05-04 12:55 | 20.03220 | 71.59266 | 23485 ft | 440 kts | 311° |
| 2026-05-04 12:55 | 20.05278 | 71.56857 | 23648 ft | 440 kts | 311° |
| 2026-05-04 12:55 | 20.07339 | 71.54443 | 23787 ft | 441 kts | 312° |
| 2026-05-04 12:55 | 20.09405 | 71.52024 | 23934 ft | 442 kts | 312° |
| 2026-05-04 12:56 | 20.11471 | 71.49601 | 24098 ft | 443 kts | 312° |
| 2026-05-04 12:56 | 20.13541 | 71.47174 | 24248 ft | 443 kts | 312° |
| 2026-05-04 12:56 | 20.15610 | 71.44746 | 24436 ft | 443 kts | 312° |
| 2026-05-04 12:56 | 20.17682 | 71.42315 | 24594 ft | 443 kts | 312° |
| 2026-05-04 12:57 | 20.19754 | 71.39883 | 24751 ft | 444 kts | 312° |
| 2026-05-04 12:57 | 20.21829 | 71.37445 | 24892 ft | 445 kts | 312° |
| 2026-05-04 12:57 | 20.23907 | 71.35004 | 25040 ft | 445 kts | 312° |
| 2026-05-04 12:57 | 20.25959 | 71.32590 | 25172 ft | 446 kts | 312° |
| 2026-05-04 12:58 | 20.28042 | 71.30141 | 25324 ft | 447 kts | 312° |
| 2026-05-04 12:58 | 20.30127 | 71.27687 | 25466 ft | 447 kts | 312° |
| 2026-05-04 12:58 | 20.32215 | 71.25229 | 25614 ft | 448 kts | 312° |
| 2026-05-04 12:58 | 20.34255 | 71.22720 | 25741 ft | 449 kts | 306° |
| 2026-05-04 12:59 | 20.35770 | 71.19809 | 25866 ft | 451 kts | 296° |
| 2026-05-04 12:59 | 20.37330 | 71.16926 | 25976 ft | 450 kts | 309° |
| 2026-05-04 12:59 | 20.39571 | 71.14612 | 26059 ft | 450 kts | 324° |
| 2026-05-04 12:59 | 20.42317 | 71.13049 | 25849 ft | 448 kts | 340° |
| 2026-05-04 13:00 | 20.45345 | 71.12428 | 25767 ft | 443 kts | 356° |
| 2026-05-04 13:00 | 20.48412 | 71.12789 | 25758 ft | 448 kts | 12° |
| 2026-05-04 13:00 | 20.51292 | 71.14100 | 25758 ft | 456 kts | 28° |
| 2026-05-04 13:00 | 20.53751 | 71.16271 | 25754 ft | 464 kts | 45° |
| 2026-05-04 13:01 | 20.55561 | 71.19121 | 25753 ft | 467 kts | 61° |
| 2026-05-04 13:01 | 20.56564 | 71.22426 | 25752 ft | 473 kts | 78° |
| 2026-05-04 13:01 | 20.56678 | 71.25944 | 25752 ft | 479 kts | 94° |
| 2026-05-04 13:01 | 20.55884 | 71.29402 | 25749 ft | 484 kts | 111° |
| 2026-05-04 13:02 | 20.54236 | 71.32529 | 25749 ft | 486 kts | 127° |
| 2026-05-04 13:02 | 20.51856 | 71.35088 | 25750 ft | 487 kts | 143° |
| 2026-05-04 13:02 | 20.50016 | 71.36451 | 25754 ft | 487 kts | 148° |
| 2026-05-04 13:02 | 20.47121 | 71.38337 | 25752 ft | 488 kts | 150° |
| 2026-05-04 13:03 | 20.44196 | 71.40184 | 25748 ft | 489 kts | 150° |
| 2026-05-04 13:03 | 20.41268 | 71.42024 | 25752 ft | 489 kts | 150° |